Terminal Aerodrome Forecast
Issued by NWS

Home | Current Version | Previous Version | Text Only | Print | Product List | Glossary On
Versions: 1 2 3 4 5 6 7 8 9 10 11 12 13
157
FTUS42 KTBW 181127
TAFLAL
TAF
KLAL 181127Z 1812/1912 VRB03KT 6SM BR SCT008
     FM181400 13005KT P6SM FEW250
     FM181900 23005KT P6SM SKC
     FM190800 VRB03KT 5SM BR FEW008=

USA.gov is the U.S. government's official web portal to all federal, state and local government web resources and services.